Time;durP1;ratioP1;P1;durP2;ratioP2;P2;SDS_P1;SDS_P2;PMS_P1;PMS_P2;Temp;Humidity;BMP_temperature;BMP_pressure;BME280_temperature;BME280_humidity;BME280_pressure;Samples;Min_cycle;Max_cycle;Signal;HPM_P1;HPM_P2
2023/01/17 05:04:27;;;;;;;4.22;0.95;;;1.80;99.90;;;;;;6237780;22;20283;-83
2023/01/17 05:06:53;;;;;;;0.77;0.77;;;1.80;99.90;;;;;;4973518;28;20283;-67
2023/01/17 05:09:19;;;;;;;1.20;1.08;;;1.90;99.90;;;;;;4975030;28;20204;-66
2023/01/17 05:11:44;;;;;;;0.97;0.97;;;2.00;99.90;;;;;;4975567;28;20182;-66
2023/01/17 05:14:10;;;;;;;1.07;1.07;;;2.00;99.90;;;;;;4974597;28;20684;-64
2023/01/17 05:16:36;;;;;;;0.77;0.77;;;2.10;99.90;;;;;;4974947;28;20626;-65
2023/01/17 05:19:01;;;;;;;1.50;1.27;;;2.10;99.90;;;;;;4974975;28;20499;-65
2023/01/17 05:21:27;;;;;;;1.57;1.47;;;2.10;99.90;;;;;;4974862;28;20172;-65
2023/01/17 05:23:52;;;;;;;2.13;1.00;;;2.10;99.90;;;;;;4974566;28;20661;-66
2023/01/17 05:26:18;;;;;;;0.93;0.70;;;2.20;99.90;;;;;;4975101;28;20184;-66
2023/01/17 05:28:44;;;;;;;1.23;1.00;;;2.20;99.90;;;;;;4974854;28;20550;-66
2023/01/17 05:31:09;;;;;;;1.53;1.33;;;2.20;99.90;;;;;;4973839;28;20250;-65
2023/01/17 05:33:35;;;;;;;1.13;0.90;;;2.30;99.90;;;;;;4973896;28;20179;-65
2023/01/17 05:36:02;;;;;;;0.80;0.70;;;2.30;99.90;;;;;;4974006;28;21001;-65
2023/01/17 05:38:28;;;;;;;1.40;1.23;;;2.30;99.90;;;;;;4974658;28;20222;-66
2023/01/17 05:40:54;;;;;;;1.00;1.00;;;2.20;99.90;;;;;;4974818;28;20175;-65
2023/01/17 05:43:21;;;;;;;1.13;0.80;;;2.10;99.90;;;;;;4974356;28;20172;-65
2023/01/17 05:45:48;;;;;;;1.13;0.85;;;2.10;99.90;;;;;;4974447;28;20511;-65
2023/01/17 05:48:14;;;;;;;1.30;1.20;;;2.00;99.90;;;;;;4974658;28;20351;-64
2023/01/17 05:50:39;;;;;;;1.20;0.73;;;2.00;99.90;;;;;;4974632;28;20219;-66
2023/01/17 05:53:08;;;;;;;0.80;0.80;;;2.00;99.90;;;;;;4974233;28;20176;-66
2023/01/17 05:55:34;;;;;;;0.85;0.85;;;1.90;99.90;;;;;;4974939;28;20195;-65
2023/01/17 05:58:01;;;;;;;1.17;0.88;;;1.80;99.90;;;;;;4974587;28;20626;-65
2023/01/17 06:00:26;;;;;;;0.77;0.77;;;1.80;99.90;;;;;;4973221;28;20206;-63
2023/01/17 06:02:53;;;;;;;1.80;1.60;;;1.70;99.90;;;;;;4974178;28;20207;-64
2023/01/17 06:05:20;;;;;;;0.98;0.98;;;1.70;99.90;;;;;;4974211;28;20637;-65
2023/01/17 06:07:46;;;;;;;1.30;1.13;;;1.60;99.90;;;;;;4974409;28;20191;-65
2023/01/17 06:10:14;;;;;;;1.30;1.20;;;1.50;99.90;;;;;;4974207;28;20689;-65
2023/01/17 06:12:41;;;;;;;2.05;1.25;;;1.50;99.90;;;;;;4974063;28;20652;-66
2023/01/17 06:15:07;;;;;;;0.80;0.80;;;1.50;99.90;;;;;;4974408;28;20662;-65
2023/01/17 06:17:34;;;;;;;2.78;1.02;;;1.50;99.90;;;;;;4974370;28;20591;-64
2023/01/17 06:19:59;;;;;;;1.70;1.23;;;1.50;99.90;;;;;;4974241;28;20169;-64
2023/01/17 06:22:25;;;;;;;2.60;0.93;;;1.50;99.90;;;;;;4974372;28;20174;-65
2023/01/17 06:24:51;;;;;;;1.57;1.47;;;1.50;99.90;;;;;;4973870;28;20188;-65
2023/01/17 06:27:16;;;;;;;1.30;1.20;;;1.40;99.90;;;;;;4973426;28;20196;-64
2023/01/17 06:29:42;;;;;;;1.97;1.30;;;1.40;99.90;;;;;;4974116;28;20227;-63
2023/01/17 06:32:07;;;;;;;1.50;1.10;;;1.40;99.90;;;;;;4972775;28;20208;-64
2023/01/17 06:34:33;;;;;;;0.83;0.83;;;1.40;99.90;;;;;;4971753;28;20207;-65
2023/01/17 06:36:59;;;;;;;1.37;1.27;;;1.40;99.90;;;;;;4971936;28;20192;-64
2023/01/17 06:39:24;;;;;;;0.60;0.60;;;1.30;99.90;;;;;;4961763;28;20642;-64
2023/01/17 06:41:50;;;;;;;1.37;1.17;;;1.30;99.90;;;;;;4969952;28;20192;-65
2023/01/17 06:44:15;;;;;;;3.93;1.60;;;1.20;99.90;;;;;;4962840;28;20679;-65
2023/01/17 06:46:42;;;;;;;3.70;1.57;;;1.20;99.90;;;;;;4972844;28;20190;-65
2023/01/17 06:49:07;;;;;;;2.35;2.15;;;1.30;99.90;;;;;;4977547;28;20211;-65
2023/01/17 06:51:33;;;;;;;1.93;1.10;;;1.20;99.90;;;;;;4977285;28;20165;-65
2023/01/17 06:53:58;;;;;;;2.00;1.70;;;1.20;99.90;;;;;;4977012;28;20198;-65
2023/01/17 06:56:24;;;;;;;2.40;1.93;;;1.20;99.90;;;;;;4977335;28;20200;-65
2023/01/17 06:58:50;;;;;;;1.63;1.53;;;1.10;99.90;;;;;;4977809;28;20526;-65
2023/01/17 07:01:17;;;;;;;1.23;1.10;;;1.10;99.90;;;;;;4977377;28;20180;-68
2023/01/17 07:03:43;;;;;;;1.33;1.33;;;1.20;99.90;;;;;;4977014;28;20589;-65
2023/01/17 07:06:09;;;;;;;1.60;1.52;;;1.20;99.90;;;;;;4977074;28;20210;-66
2023/01/17 07:08:35;;;;;;;3.70;1.60;;;1.20;99.90;;;;;;4977228;28;20196;-65
2023/01/17 07:11:04;;;;;;;1.55;1.35;;;1.10;99.90;;;;;;4977302;28;20419;-65
2023/01/17 07:13:32;;;;;;;2.30;1.58;;;1.10;99.90;;;;;;4976318;28;20581;-64
2023/01/17 07:16:00;;;;;;;2.55;1.30;;;1.10;99.90;;;;;;4975770;28;20172;-64
2023/01/17 07:18:26;;;;;;;1.33;1.23;;;1.10;99.90;;;;;;4976989;28;20238;-64
2023/01/17 07:20:52;;;;;;;1.27;1.13;;;1.10;99.90;;;;;;4977024;28;20176;-64
2023/01/17 07:23:19;;;;;;;2.15;1.90;;;1.10;99.90;;;;;;4976695;28;20494;-65
2023/01/17 07:25:51;;;;;;;1.38;1.00;;;1.10;99.90;;;;;;4976811;28;20557;-65
2023/01/17 07:28:17;;;;;;;3.33;2.42;;;1.10;99.90;;;;;;4976807;28;20188;-65
2023/01/17 07:30:42;;;;;;;4.30;2.90;;;1.20;99.90;;;;;;4977081;28;20496;-65
2023/01/17 07:33:08;;;;;;;2.90;2.20;;;1.20;99.90;;;;;;4976412;28;20175;-65
2023/01/17 07:35:35;;;;;;;1.60;1.50;;;1.20;99.90;;;;;;4976702;28;20180;-64
2023/01/17 07:38:01;;;;;;;1.85;1.45;;;1.30;99.90;;;;;;4976786;28;20238;-65
2023/01/17 07:40:27;;;;;;;1.38;1.27;;;1.30;99.90;;;;;;4977238;28;20180;-65
2023/01/17 07:42:59;;;;;;;2.43;2.00;;;1.30;99.90;;;;;;4976172;28;20626;-65
2023/01/17 07:45:24;;;;;;;2.33;2.13;;;1.40;99.90;;;;;;4976372;28;20270;-66
2023/01/17 07:47:50;;;;;;;3.20;2.40;;;1.50;99.90;;;;;;4973551;28;20291;-65
2023/01/17 07:50:15;;;;;;;2.90;1.87;;;1.70;99.90;;;;;;4957054;29;20183;-66
2023/01/17 07:52:41;;;;;;;2.17;1.93;;;2.00;99.90;;;;;;4957069;28;20173;-66
2023/01/17 07:55:07;;;;;;;1.53;1.43;;;2.30;99.90;;;;;;4955122;28;20244;-65
2023/01/17 07:57:33;;;;;;;3.65;1.88;;;2.60;99.90;;;;;;4957372;29;20492;-66
2023/01/17 07:59:58;;;;;;;1.90;1.73;;;2.60;99.90;;;;;;4957067;29;20220;-66
2023/01/17 08:02:24;;;;;;;2.00;1.87;;;2.60;99.90;;;;;;4961831;28;20643;-67
2023/01/17 08:04:50;;;;;;;3.00;1.90;;;2.50;99.90;;;;;;4975419;28;20302;-65
2023/01/17 08:07:15;;;;;;;2.17;1.83;;;2.40;99.90;;;;;;4971041;28;20179;-65
2023/01/17 08:09:42;;;;;;;2.77;1.20;;;2.40;99.90;;;;;;4970652;28;20667;-67
2023/01/17 08:12:09;;;;;;;1.20;1.20;;;2.30;99.90;;;;;;4975950;28;20239;-65
2023/01/17 08:14:35;;;;;;;1.77;1.60;;;2.30;99.90;;;;;;4975608;28;20599;-66
2023/01/17 08:17:11;;;;;;;1.65;1.38;;;2.20;99.90;;;;;;4976175;28;20168;-67
2023/01/17 08:19:37;;;;;;;3.83;2.28;;;2.20;99.90;;;;;;4976066;28;20178;-64
2023/01/17 08:22:02;;;;;;;2.07;1.97;;;2.20;99.90;;;;;;4975861;28;20574;-64
2023/01/17 08:24:28;;;;;;;4.30;1.73;;;2.20;99.90;;;;;;4967300;28;20200;-63
2023/01/17 08:26:55;;;;;;;2.27;1.77;;;2.20;99.90;;;;;;4960043;28;20181;-64
2023/01/17 08:29:20;;;;;;;2.38;2.10;;;2.30;99.90;;;;;;4960307;28;20203;-64
2023/01/17 08:31:46;;;;;;;2.03;1.90;;;2.30;99.90;;;;;;4956454;29;20169;-63
2023/01/17 08:34:13;;;;;;;2.10;1.87;;;2.50;99.90;;;;;;4955824;28;20192;-63
2023/01/17 08:36:39;;;;;;;1.60;1.50;;;2.60;99.90;;;;;;4964680;28;20661;-64
2023/01/17 08:39:05;;;;;;;1.80;1.70;;;2.90;99.90;;;;;;4972482;28;20195;-63
2023/01/17 08:41:31;;;;;;;2.77;1.43;;;3.20;99.90;;;;;;4964310;28;20172;-65
2023/01/17 08:43:56;;;;;;;1.23;1.20;;;3.50;99.90;;;;;;4965651;28;20193;-64
2023/01/17 08:46:23;;;;;;;1.30;1.20;;;4.00;99.90;;;;;;4965596;28;20567;-64
2023/01/17 08:48:54;;;;;;;2.63;2.42;;;4.50;99.90;;;;;;4964060;28;20818;-65
2023/01/17 08:51:20;;;;;;;1.75;1.58;;;5.00;99.90;;;;;;4965532;28;20179;-64
2023/01/17 08:53:47;;;;;;;2.80;1.80;;;5.50;99.90;;;;;;4965598;28;20286;-67
2023/01/17 08:56:13;;;;;;;2.33;1.90;;;5.90;99.90;;;;;;4962896;28;20180;-66
2023/01/17 08:58:40;;;;;;;1.80;1.70;;;6.40;99.90;;;;;;4965390;28;20176;-67
2023/01/17 09:01:06;;;;;;;2.08;1.73;;;7.00;99.90;;;;;;4964388;28;20259;-65
2023/01/17 09:03:33;;;;;;;2.73;1.83;;;7.50;99.90;;;;;;4963136;28;20219;-67
2023/01/17 09:06:04;;;;;;;1.60;1.40;;;7.90;99.90;;;;;;4963667;28;20764;-66
2023/01/17 09:08:30;;;;;;;2.23;2.00;;;8.10;99.90;;;;;;4963790;28;20196;-67
2023/01/17 09:10:56;;;;;;;1.13;1.07;;;8.40;99.90;;;;;;4963892;28;20912;-67
2023/01/17 09:13:22;;;;;;;2.93;1.40;;;8.80;99.90;;;;;;4965284;28;20473;-67
2023/01/17 09:15:47;;;;;;;1.63;1.47;;;9.00;99.90;;;;;;4956626;28;20518;-67
2023/01/17 09:18:13;;;;;;;2.50;2.33;;;9.00;99.90;;;;;;4955550;29;20180;-67
2023/01/17 09:20:39;;;;;;;2.10;1.70;;;9.00;99.90;;;;;;4955722;29;20637;-67
2023/01/17 09:23:04;;;;;;;2.83;2.20;;;9.20;99.90;;;;;;4955205;29;20215;-67
2023/01/17 09:25:30;;;;;;;1.47;1.40;;;9.60;99.90;;;;;;4955557;29;20251;-67
2023/01/17 09:27:55;;;;;;;1.27;1.17;;;10.00;99.30;;;;;;4954122;29;20199;-67
2023/01/17 09:30:22;;;;;;;1.70;1.53;;;10.50;98.40;;;;;;4955431;29;20176;-67
2023/01/17 09:32:53;;;;;;;1.80;1.70;;;11.00;97.80;;;;;;4955268;29;20257;-72
2023/01/17 09:35:19;;;;;;;1.80;1.70;;;11.40;95.20;;;;;;4955477;29;20485;-69
2023/01/17 09:37:48;;;;;;;1.60;1.50;;;11.70;95.00;;;;;;4955352;29;20813;-69
2023/01/17 09:40:19;;;;;;;2.23;1.90;;;12.00;95.20;;;;;;4962771;28;20195;-70
2023/01/17 09:42:45;;;;;;;2.47;2.13;;;12.10;94.00;;;;;;4964310;28;20417;-70
2023/01/17 09:45:17;;;;;;;1.60;1.50;;;12.10;93.20;;;;;;4955319;28;20469;-69
2023/01/17 09:47:54;;;;;;;1.50;1.40;;;12.10;93.70;;;;;;4955105;29;20405;-68
2023/01/17 09:50:32;;;;;;;5.00;1.50;;;12.30;93.20;;;;;;4955263;29;20412;-69
2023/01/17 09:53:04;;;;;;;6.57;2.30;;;12.30;92.30;;;;;;4954771;29;20417;-68
2023/01/17 09:55:47;;;;;;;3.03;2.40;;;12.30;91.80;;;;;;4963179;28;20766;-69
2023/01/17 09:58:20;;;;;;;1.33;1.33;;;12.10;92.10;;;;;;4974708;28;20501;-69
2023/01/17 10:00:53;;;;;;;2.00;1.80;;;11.90;91.80;;;;;;4969144;28;20432;-69
2023/01/17 10:04:00;;;;;;;1.47;1.37;;;11.70;92.30;;;;;;4954849;29;20407;-65
2023/01/17 10:07:08;;;;;;;1.50;1.40;;;11.60;92.70;;;;;;4954863;28;20461;-64
2023/01/17 10:09:52;;;;;;;2.20;1.30;;;11.90;91.70;;;;;;4955022;29;20468;-64
2023/01/17 10:12:30;;;;;;;1.43;1.33;;;12.10;91.40;;;;;;4954944;29;20411;-64
2023/01/17 10:15:22;;;;;;;1.33;1.23;;;12.20;90.50;;;;;;4970695;28;20440;-64
2023/01/17 10:18:21;;;;;;;2.07;1.93;;;12.20;90.80;;;;;;4976684;28;20390;-65
2023/01/17 10:20:59;;;;;;;1.40;1.40;;;12.30;90.60;;;;;;4977519;28;20396;-63
2023/01/17 10:23:55;;;;;;;1.50;1.40;;;12.30;90.60;;;;;;4970752;28;20465;-66
2023/01/17 10:26:25;;;;;;;2.30;1.20;;;12.40;90.40;;;;;;4958884;28;20406;-67
2023/01/17 10:28:54;;;;;;;1.40;1.30;;;12.20;90.40;;;;;;4966847;28;20456;-64
2023/01/17 10:31:23;;;;;;;3.00;1.30;;;12.00;91.40;;;;;;4962412;28;20415;-66
2023/01/17 10:33:51;;;;;;;1.77;1.40;;;12.00;91.50;;;;;;4963324;28;20467;-65
2023/01/17 10:36:22;;;;;;;1.43;1.20;;;12.10;90.50;;;;;;4967941;28;20424;-65
2023/01/17 10:38:54;;;;;;;1.17;1.07;;;12.20;91.00;;;;;;4963338;28;20512;-66
2023/01/17 10:41:40;;;;;;;0.80;0.80;;;12.30;90.70;;;;;;4958193;29;20416;-67
2023/01/17 10:44:18;;;;;;;0.90;0.90;;;12.40;90.60;;;;;;4958648;28;20437;-63
2023/01/17 10:46:54;;;;;;;1.40;0.77;;;12.50;87.20;;;;;;4974954;28;20832;-66
2023/01/17 10:49:23;;;;;;;0.60;0.60;;;12.40;87.00;;;;;;4976659;28;20828;-68
2023/01/17 10:52:02;;;;;;;0.87;0.87;;;12.40;86.00;;;;;;4959759;28;20383;-66
2023/01/17 10:54:55;;;;;;;1.37;0.83;;;12.30;85.00;;;;;;4962693;28;20432;-64
2023/01/17 10:57:22;;;;;;;1.27;1.03;;;12.10;84.00;;;;;;4972114;28;20770;-64
2023/01/17 10:59:48;;;;;;;0.70;0.70;;;11.90;83.30;;;;;;4977357;28;20431;-65
2023/01/17 11:02:18;;;;;;;0.70;0.67;;;11.80;83.90;;;;;;4977558;28;20463;-65
2023/01/17 11:04:47;;;;;;;0.73;0.73;;;11.60;82.90;;;;;;4977003;28;20510;-65
2023/01/17 11:07:25;;;;;;;0.50;0.47;;;11.40;82.10;;;;;;4977237;28;20418;-65
2023/01/17 11:09:53;;;;;;;0.67;0.67;;;11.10;82.60;;;;;;4977352;28;20612;-66
2023/01/17 11:12:42;;;;;;;1.13;0.67;;;10.70;82.70;;;;;;4976576;28;20427;-63
2023/01/17 11:15:08;;;;;;;0.50;0.50;;;10.50;83.00;;;;;;4970770;28;20467;-64
2023/01/17 11:17:48;;;;;;;1.33;0.63;;;10.20;82.60;;;;;;4977281;28;20458;-64
2023/01/17 11:20:34;;;;;;;0.82;0.60;;;9.80;84.60;;;;;;4971793;28;20186;-64
2023/01/17 11:23:02;;;;;;;0.60;0.60;;;9.20;85.00;;;;;;4957313;28;20200;-66
2023/01/17 11:25:32;;;;;;;0.80;0.80;;;8.70;85.50;;;;;;4960348;28;20562;-63
2023/01/17 11:28:29;;;;;;;1.60;1.40;;;8.20;86.80;;;;;;4976173;28;20554;-65
2023/01/17 11:31:06;;;;;;;0.77;0.77;;;7.80;88.80;;;;;;4969603;28;20180;-66
2023/01/17 11:33:33;;;;;;;0.80;0.70;;;7.40;89.80;;;;;;4973869;28;20192;-66
2023/01/17 11:35:59;;;;;;;0.45;0.45;;;7.20;89.50;;;;;;4973821;28;20180;-65
2023/01/17 11:38:25;;;;;;;0.93;0.80;;;7.00;87.50;;;;;;4976790;28;20178;-64
2023/01/17 11:41:18;;;;;;;2.00;0.77;;;6.80;87.50;;;;;;4967449;28;20271;-64
2023/01/17 11:43:57;;;;;;;0.50;0.40;;;6.70;87.00;;;;;;4956832;28;20466;-66
2023/01/17 11:46:24;;;;;;;0.50;0.50;;;6.60;87.80;;;;;;4962673;28;20318;-62
2023/01/17 11:48:55;;;;;;;1.05;0.80;;;6.50;90.20;;;;;;4974438;28;20203;-65
2023/01/17 11:51:30;;;;;;;0.75;0.57;;;6.50;90.10;;;;;;4957200;29;20169;-64
2023/01/17 11:54:21;;;;;;;2.15;0.80;;;6.50;90.00;;;;;;4956545;29;20271;-62
2023/01/17 11:56:47;;;;;;;0.50;0.50;;;6.50;89.90;;;;;;4957175;29;20176;-64
2023/01/17 11:59:25;;;;;;;0.43;0.43;;;6.60;89.30;;;;;;4959888;28;20277;-62
2023/01/17 12:02:22;;;;;;;0.70;0.70;;;6.60;89.40;;;;;;4975337;28;20171;-65
2023/01/17 12:04:56;;;;;;;0.68;0.68;;;6.60;88.90;;;;;;4973468;28;20286;-65
2023/01/17 12:07:32;;;;;;;0.60;0.60;;;6.50;89.10;;;;;;4975684;28;20214;-63
2023/01/17 12:10:00;;;;;;;0.40;0.40;;;6.40;89.60;;;;;;4976188;28;20286;-65
2023/01/17 12:16:28;;;;;;;1.20;0.60;;;6.40;90.10;;;;;;4970752;28;20638;-65
2023/01/17 12:19:17;;;;;;;0.95;0.95;;;6.50;90.40;;;;;;4956524;28;20184;-64
2023/01/17 12:21:45;;;;;;;0.60;0.40;;;6.50;90.00;;;;;;4956577;28;20624;-66
2023/01/17 12:24:30;;;;;;;1.70;1.23;;;6.50;90.10;;;;;;4960292;28;20206;-65
2023/01/17 12:27:17;;;;;;;0.52;0.52;;;6.60;89.60;;;;;;4960204;28;20665;-65
2023/01/17 12:29:57;;;;;;;1.17;1.08;;;6.60;88.60;;;;;;4959196;28;20202;-69
2023/01/17 12:32:58;;;;;;;0.65;0.60;;;6.70;89.10;;;;;;4974101;28;20203;-64
2023/01/17 12:35:38;;;;;;;0.80;0.80;;;6.70;88.60;;;;;;4975237;28;20249;-65
2023/01/17 12:38:17;;;;;;;0.75;0.55;;;6.70;88.00;;;;;;4974549;28;20575;-67
2023/01/17 12:40:55;;;;;;;1.50;0.80;;;6.60;88.60;;;;;;4974894;28;20182;-64
2023/01/17 12:43:21;;;;;;;0.65;0.60;;;6.50;88.00;;;;;;4972190;28;20171;-65
2023/01/17 12:45:49;;;;;;;0.70;0.70;;;6.50;88.60;;;;;;4966185;28;20703;-66
2023/01/17 12:48:17;;;;;;;0.70;0.70;;;6.50;88.30;;;;;;4962144;28;20210;-64
2023/01/17 12:50:46;;;;;;;0.57;0.50;;;6.40;89.00;;;;;;4975071;28;20179;-64
2023/01/17 12:53:25;;;;;;;0.77;0.77;;;6.50;88.20;;;;;;4970372;28;20178;-64
2023/01/17 12:56:03;;;;;;;0.70;0.60;;;6.60;89.10;;;;;;4968101;28;20303;-66
2023/01/17 12:58:54;;;;;;;0.50;0.50;;;6.60;89.60;;;;;;4973808;28;20538;-63
2023/01/17 13:01:29;;;;;;;0.50;0.50;;;6.70;87.10;;;;;;4961020;28;20200;-61
2023/01/17 13:04:20;;;;;;;1.35;0.70;;;6.60;87.90;;;;;;4968538;28;20576;-62
2023/01/17 13:07:40;;;;;;;0.75;0.55;;;6.50;88.70;;;;;;4975468;28;20253;-66
2023/01/17 13:10:06;;;;;;;1.02;0.65;;;6.40;88.50;;;;;;4914745;29;20231;-67
2023/01/17 13:12:33;;;;;;;0.50;0.50;;;6.40;88.50;;;;;;4908441;29;20186;-65
2023/01/17 13:15:01;;;;;;;3.60;0.95;;;6.40;88.70;;;;;;4914750;29;20563;-66
2023/01/17 13:17:47;;;;;;;0.65;0.50;;;6.40;88.70;;;;;;4915161;29;20275;-65
2023/01/17 13:20:31;;;;;;;0.55;0.50;;;6.40;89.50;;;;;;4915215;29;20183;-65
2023/01/17 13:23:06;;;;;;;2.70;0.60;;;6.40;90.40;;;;;;4915015;29;20296;-64
2023/01/17 13:25:48;;;;;;;5.18;0.75;;;6.40;89.80;;;;;;4915107;29;20215;-66
2023/01/17 13:28:32;;;;;;;0.52;0.52;;;6.40;90.10;;;;;;4915122;29;20668;-65
2023/01/17 13:31:19;;;;;;;1.00;0.50;;;6.40;90.00;;;;;;4915171;29;20201;-64
2023/01/17 13:34:07;;;;;;;0.65;0.65;;;6.30;89.50;;;;;;4914880;29;20194;-65
2023/01/17 13:36:42;;;;;;;0.60;0.57;;;6.20;90.00;;;;;;4914822;29;20182;-63
2023/01/17 13:39:28;;;;;;;2.53;1.23;;;6.20;90.40;;;;;;4915106;29;20191;-63
2023/01/17 13:42:01;;;;;;;0.75;0.50;;;6.20;90.60;;;;;;4914947;29;20181;-66
2023/01/17 13:44:30;;;;;;;0.50;0.50;;;6.20;90.50;;;;;;4922322;28;20569;-63
2023/01/17 13:47:28;;;;;;;0.38;0.38;;;6.10;90.10;;;;;;4967097;28;20184;-65
2023/01/17 13:49:55;;;;;;;0.57;0.57;;;6.10;90.20;;;;;;4954231;28;20219;-66
2023/01/17 13:52:23;;;;;;;1.48;0.77;;;6.10;89.90;;;;;;4971155;28;20186;-65
2023/01/17 13:54:57;;;;;;;0.73;0.40;;;6.00;90.10;;;;;;4966263;28;20198;-64
2023/01/17 13:57:31;;;;;;;0.45;0.45;;;6.00;89.90;;;;;;4973271;28;20576;-65
2023/01/17 14:00:15;;;;;;;0.63;0.63;;;6.00;90.10;;;;;;4969282;28;20191;-63
2023/01/17 14:02:41;;;;;;;0.47;0.47;;;5.90;89.70;;;;;;4955988;28;20176;-65
2023/01/17 14:05:16;;;;;;;1.10;0.63;;;5.90;90.00;;;;;;4966900;28;20213;-63
2023/01/17 14:08:02;;;;;;;4.13;1.42;;;5.90;90.10;;;;;;4973647;28;20223;-64
2023/01/17 14:10:35;;;;;;;2.58;1.23;;;5.80;90.20;;;;;;4966883;28;20184;-65
2023/01/17 14:13:03;;;;;;;0.63;0.63;;;5.80;90.40;;;;;;4973433;28;20269;-66
2023/01/17 14:15:34;;;;;;;1.20;0.77;;;5.80;90.30;;;;;;4972221;28;20200;-64
2023/01/17 14:18:04;;;;;;;0.93;0.93;;;5.70;90.40;;;;;;4968515;28;20180;-67
2023/01/17 14:20:41;;;;;;;2.47;1.38;;;5.80;90.70;;;;;;4973984;28;20190;-64
2023/01/17 14:23:22;;;;;;;1.95;1.08;;;5.80;90.30;;;;;;4973388;28;20553;-65
2023/01/17 14:25:50;;;;;;;4.30;1.98;;;5.70;90.10;;;;;;4971759;28;20675;-65
2023/01/17 14:28:28;;;;;;;1.10;1.00;;;5.70;90.30;;;;;;4972446;28;20208;-65
2023/01/17 14:30:55;;;;;;;2.88;0.98;;;5.70;90.50;;;;;;4974333;28;20176;-65
2023/01/17 14:33:37;;;;;;;0.60;0.60;;;5.60;90.60;;;;;;4956262;28;20328;-65
2023/01/17 14:36:14;;;;;;;1.00;0.88;;;5.60;90.60;;;;;;4972692;28;20248;-65
2023/01/17 14:38:43;;;;;;;2.22;1.00;;;5.60;90.60;;;;;;4971922;28;20187;-64
2023/01/17 14:41:16;;;;;;;1.52;0.88;;;5.50;90.80;;;;;;4971767;28;20233;-63
2023/01/17 14:43:42;;;;;;;1.77;0.70;;;5.50;90.60;;;;;;4970301;28;20563;-65
2023/01/17 14:46:23;;;;;;;0.70;0.68;;;5.50;91.10;;;;;;4969894;28;20188;-66
2023/01/17 14:48:51;;;;;;;1.23;1.17;;;5.50;91.10;;;;;;4971817;28;20358;-65
2023/01/17 14:51:21;;;;;;;1.33;0.90;;;5.40;91.10;;;;;;4972690;28;20179;-65
2023/01/17 14:53:56;;;;;;;1.00;0.90;;;5.40;91.10;;;;;;4972682;28;20258;-65
2023/01/17 14:56:22;;;;;;;1.25;0.93;;;5.40;91.20;;;;;;4974065;28;20171;-64
2023/01/17 14:59:10;;;;;;;1.75;1.00;;;5.40;91.20;;;;;;4974018;28;20524;-65
2023/01/17 15:01:36;;;;;;;2.58;1.67;;;5.30;91.30;;;;;;4974067;28;20179;-65
2023/01/17 15:04:02;;;;;;;3.03;1.03;;;5.30;91.40;;;;;;4974282;28;20213;-64
2023/01/17 15:06:40;;;;;;;1.43;1.00;;;5.20;91.00;;;;;;4976899;28;20432;-63
2023/01/17 15:09:18;;;;;;;2.13;0.95;;;5.20;91.20;;;;;;4975204;28;20662;-63
2023/01/17 15:11:46;;;;;;;3.05;1.25;;;5.20;91.30;;;;;;4976795;28;20193;-63
2023/01/17 15:14:21;;;;;;;1.40;1.13;;;5.20;91.50;;;;;;4976594;28;20555;-64
2023/01/17 15:16:50;;;;;;;0.65;0.65;;;5.10;91.30;;;;;;4977163;28;20178;-66
2023/01/17 15:19:16;;;;;;;0.90;0.75;;;5.10;91.40;;;;;;4976135;28;20178;-64
2023/01/17 15:21:44;;;;;;;1.65;1.20;;;5.10;91.30;;;;;;4976331;28;20188;-64
2023/01/17 15:24:33;;;;;;;4.55;1.50;;;5.10;91.30;;;;;;4976350;28;20193;-65
2023/01/17 15:27:00;;;;;;;2.88;1.60;;;5.10;91.60;;;;;;4957869;28;20212;-64
2023/01/17 15:29:29;;;;;;;2.22;2.13;;;5.00;91.60;;;;;;4957793;28;20204;-64
2023/01/17 15:32:00;;;;;;;3.35;1.67;;;4.90;91.70;;;;;;4967675;28;20555;-65
2023/01/17 15:34:30;;;;;;;1.75;1.65;;;4.90;91.70;;;;;;4975941;28;20534;-63
2023/01/17 15:37:01;;;;;;;2.97;1.77;;;4.80;91.60;;;;;;4976883;28;20170;-64
2023/01/17 15:39:37;;;;;;;2.00;1.90;;;4.80;91.70;;;;;;4973039;28;20508;-64
2023/01/17 15:42:23;;;;;;;2.50;2.35;;;4.80;92.10;;;;;;4977001;28;20256;-64
2023/01/17 15:44:53;;;;;;;1.58;1.35;;;4.70;92.20;;;;;;4975790;28;20272;-64
2023/01/17 15:47:29;;;;;;;2.20;1.40;;;4.70;92.40;;;;;;4975973;28;20185;-64
2023/01/17 15:49:55;;;;;;;2.20;1.67;;;4.60;92.40;;;;;;4976569;28;20217;-65
2023/01/17 15:52:20;;;;;;;4.87;1.80;;;4.60;92.30;;;;;;4974647;28;20199;-65
2023/01/17 15:54:54;;;;;;;1.63;1.23;;;4.60;92.40;;;;;;4975097;28;20453;-65
2023/01/17 15:57:34;;;;;;;2.15;1.90;;;4.50;92.40;;;;;;4975475;28;20176;-66
2023/01/17 16:00:04;;;;;;;2.50;1.45;;;4.50;92.40;;;;;;4975530;28;20186;-64
2023/01/17 16:02:42;;;;;;;2.75;1.77;;;4.50;92.50;;;;;;4968508;28;20200;-63
2023/01/17 16:08:01;;;;;;;2.03;1.23;;;4.50;92.90;;;;;;4969483;28;20180;-64
2023/01/17 16:10:32;;;;;;;1.58;1.45;;;4.50;92.70;;;;;;4967847;28;20256;-64
2023/01/17 16:12:58;;;;;;;4.93;2.22;;;4.40;92.70;;;;;;4969860;28;20168;-65
2023/01/17 16:15:25;;;;;;;3.85;1.83;;;4.40;92.70;;;;;;4965400;28;20217;-65
2023/01/17 16:18:01;;;;;;;3.00;1.60;;;4.40;92.90;;;;;;4975737;28;20181;-65
2023/01/17 16:20:37;;;;;;;3.80;2.40;;;4.40;93.10;;;;;;4974119;28;20260;-65
2023/01/17 16:23:03;;;;;;;2.45;2.25;;;4.40;93.20;;;;;;4975198;28;20172;-65
2023/01/17 16:25:31;;;;;;;1.80;1.70;;;4.40;93.30;;;;;;4975075;28;20208;-66
2023/01/17 16:27:57;;;;;;;2.47;1.33;;;4.40;93.40;;;;;;4972351;28;20168;-63
2023/01/17 16:30:23;;;;;;;1.42;1.35;;;4.40;93.40;;;;;;4967433;28;20178;-66
2023/01/17 16:32:50;;;;;;;2.83;2.28;;;4.40;93.30;;;;;;4967898;28;20564;-66
2023/01/17 16:35:21;;;;;;;1.58;1.48;;;4.40;93.10;;;;;;4975361;28;20193;-65
2023/01/17 16:37:50;;;;;;;2.50;1.23;;;4.40;93.20;;;;;;4969911;28;20181;-67
2023/01/17 16:40:16;;;;;;;1.17;1.00;;;4.50;93.40;;;;;;4974944;28;20180;-65
2023/01/17 16:42:43;;;;;;;2.95;2.38;;;4.50;93.30;;;;;;4970710;28;20257;-67
2023/01/17 16:45:10;;;;;;;6.65;2.63;;;4.50;93.40;;;;;;4965243;28;20198;-67
2023/01/17 16:47:36;;;;;;;4.40;1.90;;;4.50;93.40;;;;;;4974837;28;20281;-67
2023/01/17 16:50:02;;;;;;;2.90;2.17;;;4.50;93.40;;;;;;4970721;28;20223;-67
2023/01/17 16:52:27;;;;;;;5.90;2.20;;;4.50;93.50;;;;;;4972573;28;20177;-66
2023/01/17 16:54:54;;;;;;;2.07;1.80;;;4.50;93.60;;;;;;4972439;28;20520;-67
2023/01/17 16:57:20;;;;;;;6.32;2.05;;;4.50;93.90;;;;;;4974167;28;20178;-66
2023/01/17 16:59:46;;;;;;;2.50;2.17;;;4.50;93.90;;;;;;4975180;28;20185;-67
2023/01/17 17:02:13;;;;;;;2.33;2.03;;;4.50;94.10;;;;;;4973196;28;20473;-67
2023/01/17 17:04:40;;;;;;;3.00;2.70;;;4.40;94.10;;;;;;4969849;28;20294;-66
2023/01/17 17:07:06;;;;;;;4.03;2.20;;;4.50;94.20;;;;;;4962269;28;20185;-66
2023/01/17 17:09:32;;;;;;;2.95;2.47;;;4.50;94.20;;;;;;4964679;28;20623;-67
2023/01/17 17:11:58;;;;;;;1.70;1.43;;;4.50;94.20;;;;;;4974532;28;20210;-67
2023/01/17 17:14:23;;;;;;;6.43;1.83;;;4.50;93.80;;;;;;4974149;28;20220;-66
2023/01/17 17:16:51;;;;;;;1.20;1.20;;;4.50;93.90;;;;;;4973468;28;20175;-66
2023/01/17 17:19:17;;;;;;;2.58;2.38;;;4.50;94.00;;;;;;4971904;28;20195;-66
2023/01/17 17:21:44;;;;;;;3.10;2.88;;;4.50;94.10;;;;;;4970817;28;20279;-66
2023/01/17 17:24:12;;;;;;;5.18;2.40;;;4.50;94.20;;;;;;4973389;28;20199;-65
2023/01/17 17:26:38;;;;;;;2.15;1.73;;;4.50;94.30;;;;;;4967330;28;20196;-64
2023/01/17 17:29:09;;;;;;;6.95;3.42;;;4.50;94.50;;;;;;4969510;28;20532;-67
2023/01/17 17:31:35;;;;;;;7.57;2.55;;;4.40;94.90;;;;;;4965431;28;20187;-66
2023/01/17 17:34:02;;;;;;;2.03;1.40;;;4.40;95.70;;;;;;4962276;28;20201;-67
2023/01/17 17:36:28;;;;;;;1.95;1.85;;;4.40;96.30;;;;;;4968850;28;20176;-65
2023/01/17 17:38:55;;;;;;;3.55;2.38;;;4.30;96.90;;;;;;4970035;28;20284;-65
2023/01/17 17:41:27;;;;;;;2.10;1.90;;;4.20;97.60;;;;;;4973677;28;20185;-68
2023/01/17 17:43:53;;;;;;;1.58;1.45;;;4.20;98.80;;;;;;4965610;28;20607;-66
2023/01/17 17:46:20;;;;;;;1.70;1.45;;;4.10;99.90;;;;;;4971379;28;20185;-66
2023/01/17 17:48:46;;;;;;;2.15;1.50;;;3.90;99.90;;;;;;4964722;28;20532;-65
2023/01/17 17:51:25;;;;;;;3.95;1.67;;;3.70;99.90;;;;;;4965867;28;20180;-66
2023/01/17 17:53:53;;;;;;;1.63;1.30;;;3.50;99.90;;;;;;4964950;28;20187;-65
2023/01/17 17:56:22;;;;;;;2.97;1.85;;;3.40;99.90;;;;;;4965323;28;20172;-64
2023/01/17 17:58:48;;;;;;;1.80;1.70;;;3.30;99.90;;;;;;4963810;28;20165;-65
2023/01/17 18:01:14;;;;;;;3.72;2.72;;;3.10;99.90;;;;;;4965668;28;20181;-65
2023/01/17 18:03:40;;;;;;;1.35;1.25;;;3.00;99.90;;;;;;4964852;28;20586;-64
2023/01/17 18:06:08;;;;;;;1.90;1.80;;;2.90;99.90;;;;;;4963644;28;20188;-68
2023/01/17 18:08:35;;;;;;;1.90;1.65;;;2.80;99.90;;;;;;4968960;28;20200;-64
2023/01/17 18:11:13;;;;;;;5.88;1.60;;;2.70;99.90;;;;;;4973996;28;20176;-66
2023/01/17 18:13:41;;;;;;;2.20;1.42;;;2.60;99.90;;;;;;4967306;28;20187;-63
2023/01/17 18:16:13;;;;;;;1.70;1.60;;;2.50;99.90;;;;;;4966511;28;20176;-65
2023/01/17 18:18:43;;;;;;;2.70;2.50;;;2.50;99.90;;;;;;4966068;28;20176;-64
2023/01/17 18:21:23;;;;;;;1.67;1.25;;;2.40;99.90;;;;;;4969668;28;20184;-65
2023/01/17 18:23:52;;;;;;;1.40;1.30;;;2.40;99.90;;;;;;4954441;28;20516;-62
2023/01/17 18:26:21;;;;;;;1.65;1.55;;;2.40;99.90;;;;;;4969421;28;20183;-65